createdAt,value
2018-02-14T00:01:04.869Z,61.63
2018-02-14T00:03:32.531Z,61.05
2018-02-14T00:08:27.174Z,61.25
2018-02-14T00:10:54.832Z,61.48
2018-02-14T00:13:22.522Z,61.05
2018-02-14T00:15:50.184Z,61.66
2018-02-14T00:18:17.865Z,61.72
2018-02-14T00:20:45.527Z,61.75
2018-02-14T00:23:13.381Z,61.74
2018-02-14T00:25:41.054Z,61.59
2018-02-14T00:28:08.711Z,61.78
2018-02-14T00:30:36.406Z,61.57
2018-02-14T00:33:04.084Z,61.84
2018-02-14T00:35:31.789Z,61.97
2018-02-14T00:37:59.467Z,61.87
2018-02-14T00:40:27.161Z,61.73
2018-02-14T00:42:54.851Z,61.94
2018-02-14T00:45:22.946Z,62.27
2018-02-14T00:47:50.615Z,62.01
2018-02-14T00:50:18.295Z,62.26
2018-02-14T00:52:45.982Z,61.80
2018-02-14T00:55:13.655Z,61.83
2018-02-14T00:57:41.475Z,61.69
2018-02-14T01:00:09.141Z,61.52
2018-02-14T01:02:36.821Z,62.09
2018-02-14T01:05:04.554Z,62.49
2018-02-14T01:07:32.231Z,62.14
2018-02-14T01:09:59.935Z,62.04
2018-02-14T01:12:27.595Z,62.36
2018-02-14T01:14:55.280Z,62.21
2018-02-14T01:17:23.015Z,62.03
2018-02-14T01:19:56.175Z,62.09
2018-02-14T01:22:23.860Z,62.00
2018-02-14T01:24:51.523Z,61.58
2018-02-14T01:27:19.251Z,61.39
2018-02-14T01:29:46.910Z,61.36
2018-02-14T01:32:14.582Z,61.43
2018-02-14T01:34:42.283Z,61.48
2018-02-14T01:37:09.947Z,61.78
2018-02-14T01:39:38.629Z,61.75
2018-02-14T01:42:06.303Z,62.15
2018-02-14T01:44:34.024Z,62.23
2018-02-14T01:47:01.694Z,62.16
2018-02-14T01:49:29.445Z,62.29
2018-02-14T01:51:57.134Z,62.22
2018-02-14T01:54:24.800Z,62.11
2018-02-14T01:56:52.486Z,62.77
2018-02-14T01:59:20.156Z,62.73
2018-02-14T02:01:48.051Z,62.43
2018-02-14T02:04:15.722Z,62.64
2018-02-14T02:06:43.386Z,62.51
2018-02-14T02:09:11.099Z,62.70
2018-02-14T02:11:38.759Z,62.61
2018-02-14T02:14:06.440Z,63.05
2018-02-14T02:16:34.112Z,62.81
2018-02-14T02:19:02.113Z,62.67
2018-02-14T02:21:29.783Z,62.55
2018-02-14T02:23:57.448Z,62.79
2018-02-14T02:26:25.138Z,62.78
2018-02-14T02:28:52.805Z,62.32
2018-02-14T02:31:20.522Z,62.75
2018-02-14T02:33:48.195Z,62.80
2018-02-14T02:36:15.900Z,62.79
2018-02-14T02:38:43.564Z,62.84
2018-02-14T02:41:11.240Z,62.69
2018-02-14T02:43:38.956Z,62.14
2018-02-14T02:46:06.628Z,61.75
2018-02-14T02:48:34.323Z,61.70
2018-02-14T02:51:01.996Z,62.12
2018-02-14T02:53:30.085Z,61.96
2018-02-14T02:55:57.749Z,61.98
2018-02-14T02:58:25.419Z,62.17
2018-02-14T03:00:53.102Z,62.32
2018-02-14T03:03:20.787Z,62.85
2018-02-14T03:05:48.475Z,63.36
2018-02-14T03:08:16.135Z,63.47
2018-02-14T03:10:44.236Z,64.06
2018-02-14T03:13:11.919Z,63.94
2018-02-14T03:15:39.584Z,63.75
2018-02-14T03:18:07.271Z,64.16
2018-02-14T03:20:34.935Z,64.36
2018-02-14T03:23:02.632Z,64.29
2018-02-14T03:25:30.297Z,63.84
2018-02-14T03:27:58.274Z,63.46
2018-02-14T03:30:25.947Z,63.17
2018-02-14T03:32:53.606Z,62.91
2018-02-14T03:35:21.299Z,62.74
2018-02-14T03:37:48.989Z,62.88
2018-02-14T03:40:16.677Z,62.63
2018-02-14T03:42:44.359Z,62.83
2018-02-14T03:45:12.525Z,62.81
2018-02-14T03:47:40.194Z,62.54
2018-02-14T03:50:07.859Z,62.32
2018-02-14T03:52:35.547Z,62.18
2018-02-14T03:55:03.208Z,62.17
2018-02-14T03:57:30.899Z,62.41
2018-02-14T03:59:58.572Z,62.59
2018-02-14T04:02:26.466Z,62.59
2018-02-14T04:04:54.132Z,62.38
2018-02-14T04:07:21.792Z,62.20
2018-02-14T04:09:49.480Z,61.99
2018-02-14T04:12:17.143Z,62.10
2018-02-14T04:14:44.823Z,62.45
2018-02-14T04:17:12.487Z,62.45
2018-02-14T04:19:40.177Z,62.32
2018-02-14T04:22:07.854Z,61.90
2018-02-14T04:24:35.518Z,61.53
2018-02-14T04:27:03.206Z,61.97
2018-02-14T04:29:30.871Z,61.52
2018-02-14T04:31:58.567Z,61.77
2018-02-14T04:34:26.232Z,61.96
2018-02-14T04:36:53.894Z,62.30
2018-02-14T04:39:21.592Z,62.19
2018-02-14T04:41:49.260Z,62.54
2018-02-14T04:44:16.944Z,61.79
2018-02-14T04:46:45.368Z,61.38
2018-02-14T04:49:13.071Z,62.13
2018-02-14T04:51:40.746Z,62.31
2018-02-14T04:54:08.413Z,62.15
2018-02-14T04:56:36.101Z,62.40
2018-02-14T04:59:03.767Z,62.75
2018-02-14T05:01:31.463Z,62.49
2018-02-14T05:03:59.154Z,62.47
2018-02-14T05:06:27.012Z,61.79
2018-02-14T05:08:54.680Z,61.84
2018-02-14T05:11:22.357Z,62.21
2018-02-14T05:13:50.043Z,61.94
2018-02-14T05:16:17.774Z,61.68
2018-02-14T05:18:45.479Z,61.77
2018-02-14T05:21:13.148Z,61.74
2018-02-14T05:23:41.125Z,61.78
2018-02-14T05:26:08.828Z,61.88
2018-02-14T05:28:36.490Z,62.01
2018-02-14T05:31:04.179Z,61.71
2018-02-14T05:33:31.860Z,62.06
2018-02-14T05:35:59.560Z,62.04
2018-02-14T05:38:27.227Z,61.79
2018-02-14T05:40:55.121Z,61.76
2018-02-14T05:43:22.785Z,61.37
2018-02-14T05:45:50.447Z,61.18
2018-02-14T05:48:18.134Z,61.48
2018-02-14T05:50:45.811Z,61.76
2018-02-14T05:53:13.517Z,62.16
2018-02-14T05:55:41.200Z,62.54
2018-02-14T05:58:09.086Z,62.30
2018-02-14T06:00:36.752Z,61.88
2018-02-14T06:03:04.415Z,61.75
2018-02-14T06:05:32.096Z,61.91
2018-02-14T06:07:59.759Z,61.74
2018-02-14T06:10:27.448Z,61.65
2018-02-14T06:12:55.150Z,61.86
2018-02-14T06:15:22.867Z,61.90
2018-02-14T06:17:50.539Z,61.43
2018-02-14T06:20:18.203Z,61.24
2018-02-14T06:22:45.899Z,61.27
2018-02-14T06:25:13.565Z,61.24
2018-02-14T06:27:41.260Z,61.48
2018-02-14T06:30:08.931Z,61.30
2018-02-14T06:32:37.032Z,60.75
2018-02-14T06:35:04.708Z,60.45
2018-02-14T06:37:32.370Z,60.27
2018-02-14T06:40:00.082Z,60.77
2018-02-14T06:42:27.767Z,60.25
2018-02-14T06:44:55.456Z,60.42
2018-02-14T06:47:23.119Z,60.23
2018-02-14T06:49:50.968Z,60.60
2018-02-14T06:52:18.653Z,61.04
2018-02-14T06:54:46.326Z,60.22
2018-02-14T06:57:14.021Z,60.21
2018-02-14T06:59:41.684Z,60.18
2018-02-14T07:02:09.385Z,60.50
2018-02-14T07:04:37.077Z,60.29
2018-02-14T07:07:05.119Z,60.12
2018-02-14T07:09:32.792Z,60.74
2018-02-14T07:12:00.553Z,61.44
2018-02-14T07:14:28.252Z,61.91
2018-02-14T07:16:55.925Z,62.21
2018-02-14T07:19:23.622Z,61.91
2018-02-14T07:21:51.284Z,61.84
2018-02-14T07:24:19.264Z,61.97
2018-02-14T07:26:46.933Z,61.71
2018-02-14T07:29:14.592Z,61.93
2018-02-14T07:34:09.231Z,62.16
2018-02-14T07:36:37.367Z,61.43
2018-02-14T07:39:05.055Z,61.22
2018-02-14T07:41:32.711Z,61.38
2018-02-14T07:44:00.575Z,61.03
2018-02-14T07:46:28.259Z,60.98
2018-02-14T07:48:55.947Z,61.37
2018-02-14T07:51:23.635Z,61.31
2018-02-14T07:53:51.624Z,60.99
2018-02-14T07:56:19.299Z,61.48
2018-02-14T07:58:46.968Z,61.62
2018-02-14T08:01:14.671Z,61.39
2018-02-14T08:03:42.340Z,61.59
2018-02-14T08:06:10.029Z,60.67
2018-02-14T08:08:37.808Z,60.38
2018-02-14T08:11:05.665Z,59.79
2018-02-14T08:13:33.363Z,60.50
2018-02-14T08:16:01.047Z,60.78
2018-02-14T08:18:28.771Z,61.02
2018-02-14T08:20:56.466Z,59.95
2018-02-14T08:23:24.167Z,60.09
2018-02-14T08:25:51.860Z,59.56
2018-02-14T08:28:19.819Z,60.19
2018-02-14T08:30:47.495Z,60.05
2018-02-14T08:33:15.196Z,59.74
2018-02-14T08:35:43.113Z,59.43
2018-02-14T08:38:10.816Z,59.07
2018-02-14T08:40:38.539Z,58.80
2018-02-14T08:43:06.207Z,59.14
2018-02-14T08:45:33.971Z,58.75
2018-02-14T08:48:01.663Z,58.66
2018-02-14T08:50:30.695Z,58.98
2018-02-14T08:52:58.705Z,59.00
2018-02-14T08:55:26.765Z,58.33
2018-02-14T08:57:54.803Z,57.35
2018-02-14T09:00:22.679Z,57.40
2018-02-14T09:02:50.556Z,56.91
2018-02-14T09:05:18.221Z,58.71
2018-02-14T09:07:46.122Z,57.75
2018-02-14T09:10:14.210Z,56.77
2018-02-14T09:12:42.118Z,57.68
2018-02-14T09:15:09.843Z,57.35
2018-02-14T09:17:37.502Z,56.83
2018-02-14T09:20:05.195Z,56.63
2018-02-14T09:22:32.862Z,58.01
2018-02-14T09:25:00.527Z,57.09
2018-02-14T09:27:28.343Z,56.58
2018-02-14T09:29:56.014Z,56.43
2018-02-14T09:32:23.699Z,56.29
2018-02-14T09:34:51.380Z,57.61
2018-02-14T09:37:19.479Z,56.07
2018-02-14T09:39:47.145Z,55.96
2018-02-14T09:42:15.124Z,55.58
2018-02-14T09:44:43.200Z,54.81
2018-02-14T09:47:10.882Z,54.05
2018-02-14T09:49:38.582Z,54.77
2018-02-14T09:52:06.370Z,54.67
2018-02-14T09:54:34.542Z,54.70
2018-02-14T09:57:02.216Z,54.00
2018-02-14T09:59:29.976Z,54.65
2018-02-14T10:01:57.663Z,55.38
2018-02-14T10:04:25.327Z,55.17
2018-02-14T10:06:53.035Z,54.08
2018-02-14T10:09:20.739Z,54.02
2018-02-14T10:11:48.822Z,53.85
2018-02-14T10:14:16.783Z,52.20
2018-02-14T10:16:44.443Z,52.29
2018-02-14T10:19:12.210Z,52.49
2018-02-14T10:21:39.897Z,53.73
2018-02-14T10:24:07.608Z,52.41
2018-02-14T10:26:35.282Z,52.26
2018-02-14T10:29:03.155Z,51.53
2018-02-14T10:31:30.834Z,52.92
2018-02-14T10:33:58.538Z,52.80
2018-02-14T10:36:26.631Z,52.07
2018-02-14T10:38:54.315Z,50.94
2018-02-14T10:41:22.305Z,50.66
2018-02-14T10:43:50.225Z,50.12
2018-02-14T10:46:18.107Z,50.60
2018-02-14T10:48:45.771Z,49.32
2018-02-14T10:51:13.441Z,49.68
2018-02-14T10:53:41.144Z,49.62
2018-02-14T10:56:08.816Z,48.72
2018-02-14T10:58:36.526Z,48.32
2018-02-14T11:01:04.207Z,48.39
2018-02-14T11:03:37.357Z,46.81
2018-02-14T11:06:10.774Z,47.09
2018-02-14T11:08:38.471Z,46.29
2018-02-14T11:11:06.435Z,46.16
2018-02-14T11:13:34.576Z,47.32
2018-02-14T11:16:02.250Z,44.55
2018-02-14T11:18:30.056Z,46.71
2018-02-14T11:20:57.748Z,43.97
2018-02-14T11:23:25.471Z,43.42
2018-02-14T11:25:53.173Z,44.08
2018-02-14T11:28:20.836Z,43.24
2018-02-14T11:30:48.511Z,43.50
2018-02-14T11:33:16.203Z,43.94
2018-02-14T11:35:43.875Z,46.16
2018-02-14T11:38:11.735Z,43.58
2018-02-14T11:40:39.406Z,44.17
2018-02-14T11:43:07.403Z,44.89
2018-02-14T11:45:35.530Z,44.01
2018-02-14T11:48:03.185Z,43.95
2018-02-14T11:50:30.793Z,42.62
2018-02-14T11:52:58.476Z,43.38
2018-02-14T11:55:26.382Z,42.18
2018-02-14T11:57:54.077Z,42.90
2018-02-14T12:00:21.751Z,41.83
2018-02-14T12:02:49.475Z,41.86
2018-02-14T12:05:17.139Z,42.36
2018-02-14T12:07:44.833Z,41.89
2018-02-14T12:10:12.421Z,41.33
2018-02-14T12:12:40.645Z,40.74
2018-02-14T12:15:08.616Z,41.40
2018-02-14T12:17:36.202Z,41.72
2018-02-14T12:20:03.824Z,41.65
2018-02-14T12:22:31.416Z,41.10
2018-02-14T12:24:59.099Z,39.34
2018-02-14T12:27:26.716Z,39.27
2018-02-14T12:29:54.362Z,39.40
2018-02-14T12:32:21.957Z,40.47
2018-02-14T12:34:49.558Z,40.16
2018-02-14T12:37:17.170Z,39.98
2018-02-14T12:39:47.465Z,40.76
2018-02-14T12:42:15.366Z,41.45
2018-02-14T12:44:43.263Z,40.14
2018-02-14T12:47:11.068Z,40.05
2018-02-14T12:49:38.653Z,41.57
2018-02-14T12:52:06.282Z,40.04
2018-02-14T12:54:33.883Z,41.48
2018-02-14T12:57:01.491Z,39.59
2018-02-14T12:59:29.185Z,39.20
2018-02-14T13:01:56.787Z,40.07
2018-02-14T13:04:24.423Z,40.21
2018-02-14T13:06:52.053Z,39.70
2018-02-14T13:09:19.946Z,40.37
2018-02-14T13:11:47.907Z,41.28
2018-02-14T13:14:15.893Z,40.26
2018-02-14T13:16:43.831Z,39.61
2018-02-14T13:19:11.585Z,39.17
2018-02-14T13:21:41.104Z,39.83
2018-02-14T13:24:08.697Z,38.19
2018-02-14T13:26:36.446Z,37.76
2018-02-14T13:29:04.057Z,38.68
2018-02-14T13:31:31.653Z,40.09
2018-02-14T13:33:59.260Z,39.58
2018-02-14T13:36:26.843Z,39.98
2018-02-14T13:38:54.866Z,37.94
2018-02-14T13:41:22.513Z,39.32
2018-02-14T13:43:50.403Z,36.86
2018-02-14T13:46:18.265Z,35.27
2018-02-14T13:48:45.859Z,37.46
2018-02-14T13:51:13.462Z,36.51
2018-02-14T13:53:41.059Z,38.86
2018-02-14T13:56:08.792Z,37.21
2018-02-14T13:58:36.374Z,37.40
2018-02-14T14:01:04.096Z,35.68
2018-02-14T14:03:31.707Z,33.07
2018-02-14T14:05:59.308Z,31.30
2018-02-14T14:08:26.981Z,31.51
2018-02-14T14:10:54.591Z,30.35
2018-02-14T14:13:22.459Z,30.57
2018-02-14T14:15:50.419Z,29.67
2018-02-14T14:18:18.014Z,30.31
2018-02-14T14:20:45.632Z,30.93
2018-02-14T14:23:14.200Z,30.24
2018-02-14T14:25:41.851Z,29.19
2018-02-14T14:28:09.473Z,28.99
2018-02-14T14:30:37.115Z,28.58
2018-02-14T14:33:04.736Z,29.10
2018-02-14T14:35:32.331Z,29.20
2018-02-14T14:38:00.422Z,28.76
2018-02-14T14:40:28.068Z,29.73
2018-02-14T14:42:55.929Z,30.78
2018-02-14T14:45:23.901Z,31.39
2018-02-14T14:47:51.544Z,32.96
2018-02-14T14:50:19.142Z,31.89
2018-02-14T14:52:46.837Z,33.18
2018-02-14T14:55:14.453Z,33.15
2018-02-14T14:57:42.092Z,34.91
2018-02-14T15:00:09.956Z,35.74
2018-02-14T15:02:37.561Z,34.68
2018-02-14T15:05:05.192Z,34.38
2018-02-14T15:07:32.820Z,35.18
2018-02-14T15:10:00.439Z,34.87
2018-02-14T15:12:28.205Z,35.48
2018-02-14T15:14:56.139Z,36.20
2018-02-14T15:17:24.004Z,36.17
2018-02-14T15:19:51.603Z,36.85
2018-02-14T15:22:19.256Z,37.42
2018-02-14T15:24:46.867Z,37.66
2018-02-14T15:27:14.478Z,37.20
2018-02-14T15:29:42.089Z,37.26
2018-02-14T15:32:09.678Z,38.45
2018-02-14T15:34:37.433Z,38.76
2018-02-14T15:37:05.300Z,38.29
2018-02-14T15:39:32.939Z,38.27
2018-02-14T15:42:00.626Z,38.75
2018-02-14T15:44:28.322Z,37.97
2018-02-14T15:46:55.936Z,38.43
2018-02-14T15:49:23.532Z,38.48
2018-02-14T15:51:51.359Z,38.03
2018-02-14T15:54:18.972Z,38.38
2018-02-14T15:56:46.566Z,38.90
2018-02-14T15:59:14.427Z,39.73
2018-02-14T16:01:42.016Z,38.90
2018-02-14T16:04:09.668Z,39.30
2018-02-14T16:06:37.634Z,39.24
2018-02-14T16:09:05.321Z,39.88
2018-02-14T16:11:32.904Z,39.54
2018-02-14T16:14:00.583Z,40.08
2018-02-14T16:16:28.360Z,41.22
2018-02-14T16:18:56.033Z,40.22
2018-02-14T16:21:24.028Z,40.27
2018-02-14T16:23:52.134Z,40.40
2018-02-14T16:26:19.968Z,40.64
2018-02-14T16:28:47.639Z,40.72
2018-02-14T16:31:15.312Z,41.08
2018-02-14T16:33:43.023Z,40.79
2018-02-14T16:36:10.698Z,41.59
2018-02-14T16:38:38.383Z,41.35
2018-02-14T16:41:06.047Z,41.50
2018-02-14T16:43:33.935Z,42.26
2018-02-14T16:46:01.941Z,42.80
2018-02-14T16:48:29.972Z,43.17
2018-02-14T16:50:57.727Z,42.73
2018-02-14T16:53:25.393Z,42.85
2018-02-14T16:55:53.350Z,43.31
2018-02-14T16:58:21.250Z,43.40
2018-02-14T17:00:49.487Z,42.71
2018-02-14T17:03:17.374Z,43.98
2018-02-14T17:05:46.339Z,44.27
2018-02-14T17:08:14.561Z,44.51
2018-02-14T17:10:42.435Z,44.41
2018-02-14T17:13:10.289Z,44.50
2018-02-14T17:15:38.380Z,44.09
2018-02-14T17:18:06.740Z,45.04
2018-02-14T17:20:35.999Z,45.12
2018-02-14T17:23:05.504Z,45.05
2018-02-14T17:25:33.626Z,46.58
2018-02-14T17:28:01.593Z,46.77
2018-02-14T17:30:29.303Z,46.55
2018-02-14T17:32:56.997Z,46.45
2018-02-14T17:35:24.960Z,46.70
2018-02-14T17:37:52.632Z,46.56
2018-02-14T17:40:20.306Z,45.93
2018-02-14T17:42:48.001Z,46.62
2018-02-14T17:45:15.668Z,46.42
2018-02-14T17:47:43.364Z,46.90
2018-02-14T17:50:11.027Z,46.98
2018-02-14T17:52:39.003Z,46.91
2018-02-14T17:55:06.677Z,46.95
2018-02-14T17:57:34.449Z,46.88
2018-02-14T18:00:02.155Z,46.55
2018-02-14T18:02:29.822Z,47.18
2018-02-14T18:04:57.527Z,47.07
2018-02-14T18:07:25.284Z,46.84
2018-02-14T18:09:53.259Z,47.27
2018-02-14T18:12:20.932Z,48.60
2018-02-14T18:14:48.643Z,48.00
2018-02-14T18:17:16.336Z,48.56
2018-02-14T18:19:44.011Z,48.83
2018-02-14T18:22:11.709Z,49.56
2018-02-14T18:24:39.439Z,50.10
2018-02-14T18:27:07.149Z,50.34
2018-02-14T18:29:34.814Z,50.68
2018-02-14T18:32:02.495Z,50.43
2018-02-14T18:34:30.190Z,50.27
2018-02-14T18:36:57.854Z,50.12
2018-02-14T18:39:25.539Z,50.23
2018-02-14T18:41:53.216Z,50.62
2018-02-14T18:44:20.907Z,50.59
2018-02-14T18:46:48.585Z,51.08
2018-02-14T18:49:16.267Z,51.18
2018-02-14T18:51:44.036Z,51.07
2018-02-14T18:54:11.855Z,51.51
2018-02-14T18:56:39.792Z,51.93
2018-02-14T18:59:07.450Z,51.65
2018-02-14T19:01:35.112Z,51.68
2018-02-14T19:04:02.801Z,51.82
2018-02-14T19:06:30.468Z,51.96
2018-02-14T19:08:58.157Z,51.66
2018-02-14T19:11:25.820Z,51.64
2018-02-14T19:13:53.968Z,51.54
2018-02-14T19:16:21.636Z,51.93
2018-02-14T19:18:49.342Z,51.84
2018-02-14T19:21:17.054Z,51.75
2018-02-14T19:23:44.722Z,52.01
2018-02-14T19:26:12.435Z,52.73
2018-02-14T19:28:40.097Z,52.84
2018-02-14T19:31:07.944Z,52.70
2018-02-14T19:33:35.608Z,52.51
2018-02-14T19:36:03.284Z,52.43
2018-02-14T19:38:30.963Z,52.99
2018-02-14T19:40:58.714Z,53.21
2018-02-14T19:43:27.819Z,53.35
2018-02-14T19:45:55.513Z,53.42
2018-02-14T19:48:23.422Z,53.84
2018-02-14T19:50:51.084Z,53.95
2018-02-14T19:53:18.759Z,54.24
2018-02-14T19:55:46.522Z,54.72
2018-02-14T19:58:14.180Z,55.81
2018-02-14T20:00:41.867Z,55.10
2018-02-14T20:03:09.535Z,54.80
2018-02-14T20:05:37.364Z,54.76
2018-02-14T20:08:05.084Z,54.58
2018-02-14T20:10:32.747Z,54.88
2018-02-14T20:13:00.463Z,54.48
2018-02-14T20:15:28.124Z,54.38
2018-02-14T20:17:55.815Z,54.27
2018-02-14T20:20:23.505Z,55.32
2018-02-14T20:22:51.519Z,54.95
2018-02-14T20:25:19.185Z,55.19
2018-02-14T20:27:46.848Z,55.36
2018-02-14T20:30:14.532Z,55.54
2018-02-14T20:32:42.279Z,55.47
2018-02-14T20:35:09.964Z,55.83
2018-02-14T20:37:37.754Z,55.70
2018-02-14T20:40:05.565Z,55.67
2018-02-14T20:42:33.236Z,56.23
2018-02-14T20:45:00.903Z,56.45
2018-02-14T20:47:28.672Z,56.50
2018-02-14T20:49:56.343Z,56.53
2018-02-14T20:52:24.029Z,56.94
2018-02-14T20:54:51.691Z,57.56
2018-02-14T20:57:19.803Z,58.22
2018-02-14T20:59:47.465Z,58.98
2018-02-14T21:02:15.147Z,59.21
2018-02-14T21:04:42.833Z,59.09
2018-02-14T21:07:10.496Z,58.59
2018-02-14T21:09:38.180Z,58.66
2018-02-14T21:12:05.843Z,58.29
2018-02-14T21:14:33.540Z,58.57
2018-02-14T21:17:01.197Z,58.38
2018-02-14T21:19:28.867Z,58.19
2018-02-14T21:21:56.561Z,58.26
2018-02-14T21:24:24.228Z,57.86
2018-02-14T21:26:51.923Z,57.22
2018-02-14T21:29:19.586Z,56.60
2018-02-14T21:31:47.687Z,56.71
2018-02-14T21:34:15.351Z,56.55
2018-02-14T21:36:43.022Z,56.36
2018-02-14T21:39:10.736Z,56.75
2018-02-14T21:41:38.488Z,56.63
2018-02-14T21:44:06.512Z,56.54
2018-02-14T21:46:34.172Z,56.93
2018-02-14T21:49:01.841Z,56.22
2018-02-14T21:51:29.533Z,56.09
2018-02-14T21:53:57.195Z,56.55
2018-02-14T21:56:24.882Z,56.24
2018-02-14T21:58:52.543Z,56.34
2018-02-14T22:01:20.498Z,57.17
2018-02-14T22:03:48.159Z,57.07
2018-02-14T22:06:15.889Z,57.05
2018-02-14T22:08:43.573Z,57.18
2018-02-14T22:11:11.245Z,57.72
2018-02-14T22:13:38.937Z,57.19
2018-02-14T22:16:06.602Z,57.91
2018-02-14T22:18:34.323Z,57.51
2018-02-14T22:21:01.995Z,57.07
2018-02-14T22:23:29.674Z,57.43
2018-02-14T22:25:57.362Z,57.13
2018-02-14T22:28:25.028Z,56.96
2018-02-14T22:30:52.715Z,57.23
2018-02-14T22:33:20.479Z,57.79
2018-02-14T22:35:48.184Z,57.28
2018-02-14T22:38:15.844Z,56.89
2018-02-14T22:40:43.525Z,56.93
2018-02-14T22:43:11.204Z,57.60
2018-02-14T22:45:38.863Z,57.31
2018-02-14T22:48:06.551Z,57.17
2018-02-14T22:50:34.227Z,57.53
2018-02-14T22:53:02.077Z,57.78
2018-02-14T22:55:29.732Z,57.96
2018-02-14T22:57:57.391Z,57.75
2018-02-14T23:00:25.114Z,57.35
2018-02-14T23:02:52.798Z,57.37
2018-02-14T23:05:20.495Z,57.62
2018-02-14T23:07:48.191Z,57.99
2018-02-14T23:10:16.320Z,58.05
2018-02-14T23:12:43.982Z,58.80
2018-02-14T23:15:11.643Z,59.05
2018-02-14T23:17:39.339Z,58.35
2018-02-14T23:20:06.999Z,58.60
2018-02-14T23:22:34.782Z,58.58
2018-02-14T23:25:02.447Z,58.85
2018-02-14T23:27:30.479Z,58.82
2018-02-14T23:29:58.214Z,58.65
2018-02-14T23:32:25.867Z,59.60
2018-02-14T23:34:53.546Z,59.56
2018-02-14T23:37:21.218Z,59.31
2018-02-14T23:39:48.907Z,59.43
2018-02-14T23:42:16.572Z,59.22
2018-02-14T23:44:44.517Z,59.31
2018-02-14T23:47:12.176Z,59.69
2018-02-14T23:49:39.843Z,60.17
2018-02-14T23:52:07.528Z,60.17
2018-02-14T23:54:35.191Z,59.40
2018-02-14T23:57:02.872Z,58.91
2018-02-14T23:59:30.564Z,58.81
